Time;durP1;ratioP1;P1;durP2;ratioP2;P2;SDS_P1;SDS_P2;PMS_P1;PMS_P2;Temp;Humidity;BMP_temperature;BMP_pressure;BME280_temperature;BME280_humidity;BME280_pressure;Samples;Min_cycle;Max_cycle;Signal;HPM_P1;HPM_P2
2022/05/17 00:00:43;;;;;;;7.80;3.23;;;14.60;99.90;;;;;;5045625;28;20225;-87
2022/05/17 00:03:10;;;;;;;6.50;3.67;;;14.60;99.90;;;;;;5043349;28;20610;-88
2022/05/17 00:05:36;;;;;;;8.27;4.20;;;14.60;99.90;;;;;;5044485;28;20239;-87
2022/05/17 00:08:02;;;;;;;16.27;4.87;;;14.60;99.90;;;;;;5045465;28;20235;-88
2022/05/17 00:10:28;;;;;;;10.13;3.77;;;14.50;99.90;;;;;;5043753;28;20717;-92
2022/05/17 00:12:54;;;;;;;9.60;3.70;;;14.50;99.90;;;;;;5027833;28;20225;-87
2022/05/17 00:15:21;;;;;;;12.20;3.77;;;14.50;99.90;;;;;;5043330;28;20218;-89
2022/05/17 00:17:48;;;;;;;8.60;4.43;;;14.50;99.90;;;;;;5060531;28;20222;-89
2022/05/17 00:20:15;;;;;;;9.23;4.60;;;14.50;99.90;;;;;;5043957;28;20212;-89
2022/05/17 00:22:42;;;;;;;15.27;3.57;;;14.50;99.90;;;;;;5042492;28;20221;-88
2022/05/17 00:25:09;;;;;;;11.63;4.87;;;14.50;99.90;;;;;;5043915;28;20674;-92
2022/05/17 00:27:34;;;;;;;11.87;4.63;;;14.50;99.90;;;;;;5045366;28;20271;-90
2022/05/17 00:30:01;;;;;;;6.37;3.03;;;14.50;99.90;;;;;;5044233;28;20213;-89
2022/05/17 00:32:26;;;;;;;8.23;3.67;;;14.40;99.90;;;;;;5043781;28;20193;-90
2022/05/17 00:34:52;;;;;;;15.00;4.53;;;14.50;99.90;;;;;;5044284;28;20222;-89
2022/05/17 00:37:20;;;;;;;7.03;4.73;;;14.50;99.90;;;;;;5027581;28;20615;-90
2022/05/17 00:39:46;;;;;;;5.13;3.57;;;14.40;99.90;;;;;;5044366;28;20524;-91
2022/05/17 00:42:11;;;;;;;10.63;4.83;;;14.40;99.90;;;;;;5044036;28;20729;-90
2022/05/17 00:44:43;;;;;;;9.47;4.80;;;14.40;99.90;;;;;;5027620;28;20648;-90
2022/05/17 00:47:21;;;;;;;10.83;2.87;;;14.40;99.90;;;;;;5028933;28;20186;-89
2022/05/17 00:50:08;;;;;;;4.80;3.43;;;14.40;99.90;;;;;;5047082;28;20221;-89
2022/05/17 00:52:56;;;;;;;4.87;3.03;;;14.40;99.90;;;;;;5047620;28;20995;-90
2022/05/17 00:55:30;;;;;;;6.30;3.70;;;14.40;99.90;;;;;;5049178;28;20279;-90
2022/05/17 00:58:04;;;;;;;7.47;3.57;;;14.40;99.90;;;;;;5048778;28;20769;-88
2022/05/17 01:00:35;;;;;;;7.53;3.47;;;14.40;99.90;;;;;;5063759;28;20388;-90
2022/05/17 01:03:06;;;;;;;5.67;3.50;;;14.40;99.90;;;;;;5048830;28;20647;-89
2022/05/17 01:05:38;;;;;;;12.20;3.87;;;14.40;99.90;;;;;;5031455;28;20185;-89
2022/05/17 01:08:08;;;;;;;10.03;3.60;;;14.40;99.90;;;;;;5048323;28;20206;-89
2022/05/17 01:10:34;;;;;;;9.10;3.13;;;14.40;99.90;;;;;;5048923;28;20275;-87
2022/05/17 01:15:46;;;;;;;7.90;4.17;;;14.50;99.90;;;;;;5061356;28;20300;-91
2022/05/17 01:18:13;;;;;;;9.67;4.10;;;14.40;99.90;;;;;;5031859;28;20217;-88
2022/05/17 01:20:39;;;;;;;6.30;3.27;;;14.50;99.90;;;;;;5047254;28;20221;-90
2022/05/17 01:23:05;;;;;;;10.63;3.10;;;14.50;99.90;;;;;;5048281;28;20757;-89
2022/05/17 01:25:32;;;;;;;9.33;3.63;;;14.50;99.90;;;;;;5047044;28;20221;-88
2022/05/17 01:28:04;;;;;;;5.57;2.93;;;14.60;99.90;;;;;;5030847;28;20267;-88
2022/05/17 01:30:31;;;;;;;13.47;3.83;;;14.60;99.90;;;;;;5047219;28;20218;-88
2022/05/17 01:32:57;;;;;;;9.30;3.43;;;14.70;99.90;;;;;;5030681;28;20534;-89
2022/05/17 01:35:23;;;;;;;5.90;3.30;;;14.70;99.90;;;;;;5047458;28;20235;-90
2022/05/17 01:37:55;;;;;;;14.90;3.90;;;14.70;99.90;;;;;;5046720;28;20230;-89
2022/05/17 01:40:23;;;;;;;10.87;3.87;;;14.70;99.90;;;;;;5038059;28;20216;-88
2022/05/17 01:42:49;;;;;;;10.10;4.13;;;14.70;99.90;;;;;;5063085;28;20224;-88
2022/05/17 01:45:15;;;;;;;15.10;4.20;;;14.60;99.90;;;;;;5048261;28;20524;-89
2022/05/17 01:47:41;;;;;;;6.37;3.10;;;14.60;99.90;;;;;;5030132;28;20635;-90
2022/05/17 01:50:07;;;;;;;9.93;5.17;;;14.60;99.90;;;;;;5047561;28;20186;-89
2022/05/17 01:52:34;;;;;;;6.10;3.20;;;14.50;99.90;;;;;;5047793;28;20928;-91
2022/05/17 01:54:59;;;;;;;9.27;4.00;;;14.50;99.90;;;;;;5048106;28;20215;-89
2022/05/17 01:57:26;;;;;;;6.97;3.70;;;14.50;99.90;;;;;;5030144;28;20307;-90
2022/05/17 01:59:51;;;;;;;14.47;4.63;;;14.50;99.90;;;;;;5048203;28;20202;-90
2022/05/17 02:02:17;;;;;;;9.27;4.17;;;14.40;99.90;;;;;;5030653;28;20197;-89
2022/05/17 02:04:43;;;;;;;4.70;2.80;;;14.40;99.90;;;;;;5046629;28;20556;-90
2022/05/17 02:07:09;;;;;;;7.57;3.43;;;14.30;99.90;;;;;;5030163;28;20701;-89
2022/05/17 02:09:35;;;;;;;7.10;4.33;;;14.30;99.90;;;;;;5046058;28;20218;-90
2022/05/17 02:12:01;;;;;;;11.73;3.37;;;14.30;99.90;;;;;;5030026;28;20225;-90
2022/05/17 02:14:27;;;;;;;9.93;3.40;;;14.30;99.90;;;;;;5046836;28;20280;-87
2022/05/17 02:16:53;;;;;;;9.97;3.57;;;14.20;99.90;;;;;;5012929;28;20698;-90
2022/05/17 02:19:20;;;;;;;6.20;3.50;;;14.20;99.90;;;;;;5046658;28;20559;-90
2022/05/17 02:21:49;;;;;;;8.77;3.67;;;14.20;99.90;;;;;;5045851;28;20683;-88
2022/05/17 02:24:15;;;;;;;8.47;3.33;;;14.20;99.90;;;;;;5029413;28;20222;-89
2022/05/17 02:26:41;;;;;;;11.07;4.37;;;14.20;99.90;;;;;;5029375;28;20954;-89
2022/05/17 02:29:08;;;;;;;9.30;3.20;;;14.10;99.90;;;;;;5030410;28;20637;-89
2022/05/17 02:31:34;;;;;;;6.53;2.87;;;14.10;99.90;;;;;;5046044;28;20214;-88
2022/05/17 02:34:00;;;;;;;7.40;3.47;;;14.00;99.90;;;;;;5045814;28;20317;-89
2022/05/17 02:36:26;;;;;;;8.13;3.60;;;14.00;99.90;;;;;;5045497;28;20230;-89
2022/05/17 02:38:52;;;;;;;7.67;3.57;;;14.00;99.90;;;;;;5062601;28;20197;-89
2022/05/17 02:41:19;;;;;;;9.67;3.87;;;14.00;99.90;;;;;;5047782;28;20203;-89
2022/05/17 02:43:47;;;;;;;9.97;3.50;;;14.00;99.90;;;;;;5029433;28;20240;-89
2022/05/17 02:46:13;;;;;;;6.77;3.83;;;13.90;99.90;;;;;;5045802;28;20233;-90
2022/05/17 02:48:39;;;;;;;9.93;3.57;;;13.90;99.90;;;;;;5045659;28;20222;-89
2022/05/17 02:51:14;;;;;;;10.63;4.00;;;13.90;99.90;;;;;;5028882;28;20218;-88
2022/05/17 02:53:39;;;;;;;5.47;4.17;;;13.90;99.90;;;;;;5061167;28;20177;-90
2022/05/17 02:56:06;;;;;;;7.50;3.40;;;13.80;99.90;;;;;;5046005;28;20216;-90
2022/05/17 02:58:31;;;;;;;6.83;2.77;;;13.80;99.90;;;;;;5046345;28;20240;-89
2022/05/17 03:00:57;;;;;;;10.57;3.87;;;13.80;99.90;;;;;;5046444;28;20686;-90
2022/05/17 03:03:23;;;;;;;8.43;3.93;;;13.80;99.90;;;;;;5029006;28;20244;-88
2022/05/17 03:05:49;;;;;;;4.67;2.83;;;13.80;99.90;;;;;;5044799;28;20426;-90
2022/05/17 03:08:14;;;;;;;14.20;3.97;;;13.70;99.90;;;;;;5029667;28;20582;-89
2022/05/17 03:10:40;;;;;;;7.20;2.87;;;13.70;99.90;;;;;;5028819;28;20220;-89
2022/05/17 03:13:10;;;;;;;9.30;3.20;;;13.70;99.90;;;;;;5029107;28;20710;-90
2022/05/17 03:15:37;;;;;;;14.87;4.10;;;13.70;99.90;;;;;;5044484;28;20218;-92
2022/05/17 03:18:03;;;;;;;5.40;3.10;;;13.70;99.90;;;;;;5045826;28;20229;-89
2022/05/17 03:20:28;;;;;;;8.53;2.83;;;13.70;99.90;;;;;;5046010;28;20591;-90
2022/05/17 03:22:54;;;;;;;9.87;3.20;;;13.70;99.90;;;;;;5046651;28;20352;-89
2022/05/17 03:25:20;;;;;;;7.80;3.53;;;13.70;99.90;;;;;;5046111;28;20217;-90
2022/05/17 03:27:46;;;;;;;4.40;2.67;;;13.70;99.90;;;;;;5045479;28;20268;-91
2022/05/17 03:30:12;;;;;;;7.30;3.40;;;13.70;99.90;;;;;;5045452;28;20224;-89
2022/05/17 03:32:38;;;;;;;5.50;3.37;;;13.70;99.90;;;;;;5011582;28;20190;-88
2022/05/17 03:35:04;;;;;;;6.57;3.27;;;13.70;99.90;;;;;;5028985;28;20197;-90
2022/05/17 03:37:30;;;;;;;7.77;3.47;;;13.70;99.90;;;;;;5043729;28;20241;-90
2022/05/17 03:39:56;;;;;;;6.50;3.27;;;13.80;99.90;;;;;;5028791;28;20261;-92
2022/05/17 03:42:21;;;;;;;6.57;2.90;;;13.80;99.90;;;;;;5028864;28;20217;-88
2022/05/17 03:44:47;;;;;;;8.57;3.20;;;13.80;99.90;;;;;;5044287;28;20701;-89
2022/05/17 03:47:14;;;;;;;6.20;2.97;;;13.80;99.90;;;;;;5044512;28;20276;-91
2022/05/17 03:49:40;;;;;;;6.70;3.17;;;13.80;99.90;;;;;;5044686;28;20214;-89
2022/05/17 03:52:08;;;;;;;5.37;3.73;;;13.90;99.90;;;;;;5044896;28;20221;-91
2022/05/17 03:54:34;;;;;;;4.50;2.63;;;13.90;99.90;;;;;;5045408;28;20218;-89
2022/05/17 03:57:00;;;;;;;8.00;3.50;;;14.00;99.90;;;;;;5045875;28;20251;-89
2022/05/17 03:59:26;;;;;;;4.37;2.63;;;14.10;99.90;;;;;;5029188;28;20208;-90
2022/05/17 04:01:51;;;;;;;6.17;2.80;;;14.10;99.90;;;;;;5027907;28;20769;-89
2022/05/17 04:04:17;;;;;;;15.50;3.57;;;14.20;99.90;;;;;;5043794;28;20242;-90
2022/05/17 04:06:43;;;;;;;9.00;2.47;;;14.30;99.90;;;;;;5027719;28;20750;-90
2022/05/17 04:09:10;;;;;;;5.77;3.20;;;14.40;99.90;;;;;;5044519;28;20679;-89
2022/05/17 04:11:36;;;;;;;4.83;3.13;;;14.50;99.90;;;;;;5044169;28;20189;-90
2022/05/17 04:14:03;;;;;;;7.40;2.00;;;14.50;99.90;;;;;;5045759;28;20273;-89
2022/05/17 04:16:33;;;;;;;2.07;1.50;;;14.60;99.90;;;;;;5044338;28;20742;-89
2022/05/17 04:19:00;;;;;;;6.47;2.50;;;14.70;99.90;;;;;;5045340;28;20312;-89
2022/05/17 04:21:26;;;;;;;8.33;2.27;;;14.70;99.90;;;;;;5044297;28;20209;-88
2022/05/17 04:23:52;;;;;;;2.87;1.77;;;14.80;99.90;;;;;;5044607;28;20631;-88
2022/05/17 04:26:18;;;;;;;5.60;2.40;;;14.90;99.90;;;;;;5044699;28;20189;-89
2022/05/17 04:28:44;;;;;;;5.37;2.50;;;15.00;99.90;;;;;;5044338;28;20210;-88
2022/05/17 04:31:10;;;;;;;4.23;1.60;;;15.10;99.90;;;;;;5043245;28;20213;-88
2022/05/17 04:33:36;;;;;;;7.60;2.60;;;15.20;99.90;;;;;;5027532;28;20221;-88
2022/05/17 04:36:02;;;;;;;9.57;2.30;;;15.30;99.90;;;;;;5027171;28;20295;-90
2022/05/17 04:38:28;;;;;;;10.03;2.20;;;15.40;99.90;;;;;;5044511;28;20213;-90
2022/05/17 04:40:54;;;;;;;7.53;2.53;;;15.60;99.90;;;;;;5037646;28;20600;-87
2022/05/17 04:43:20;;;;;;;5.77;3.07;;;15.60;99.90;;;;;;5025518;28;20210;-86
2022/05/17 04:45:45;;;;;;;9.33;3.00;;;15.50;99.90;;;;;;5027249;28;20217;-87
2022/05/17 04:48:11;;;;;;;6.17;2.63;;;15.60;99.90;;;;;;5011485;28;20222;-88
2022/05/17 04:50:38;;;;;;;4.07;2.03;;;15.60;99.90;;;;;;5044152;28;20182;-85
2022/05/17 04:53:04;;;;;;;7.33;2.37;;;15.70;99.90;;;;;;5043164;28;20642;-87
2022/05/17 04:55:31;;;;;;;6.57;2.67;;;15.80;99.90;;;;;;5044680;28;20362;-89
2022/05/17 04:57:57;;;;;;;12.60;2.97;;;15.90;99.90;;;;;;5027414;28;20267;-89
2022/05/17 05:00:25;;;;;;;4.47;1.73;;;16.00;99.90;;;;;;5043654;28;20686;-88
2022/05/17 05:02:51;;;;;;;8.43;2.37;;;16.30;99.90;;;;;;5043262;28;20198;-87
2022/05/17 05:05:19;;;;;;;4.90;2.77;;;16.30;99.90;;;;;;5026887;28;20234;-87
2022/05/17 05:07:45;;;;;;;2.30;1.73;;;16.40;99.90;;;;;;5009493;28;20229;-85
2022/05/17 05:10:12;;;;;;;11.13;2.57;;;16.50;99.90;;;;;;5025435;28;20229;-86
2022/05/17 05:12:38;;;;;;;4.63;2.07;;;16.60;99.90;;;;;;5043223;28;20214;-88
2022/05/17 05:15:04;;;;;;;6.50;2.13;;;16.80;99.90;;;;;;5025982;28;20568;-87
2022/05/17 05:17:32;;;;;;;9.67;3.00;;;17.40;99.90;;;;;;5043030;28;20229;-86
2022/05/17 05:19:58;;;;;;;6.20;1.80;;;19.10;99.90;;;;;;5042550;28;20222;-87
2022/05/17 05:22:23;;;;;;;7.23;2.67;;;20.90;99.90;;;;;;5041684;28;20234;-88
2022/05/17 05:24:49;;;;;;;11.63;2.57;;;22.10;99.90;;;;;;5042551;28;20218;-86
2022/05/17 05:27:15;;;;;;;4.80;1.63;;;24.20;99.90;;;;;;5043593;28;20221;-87
2022/05/17 05:29:40;;;;;;;4.40;2.23;;;25.30;99.90;;;;;;5041290;28;20210;-87
2022/05/17 05:32:07;;;;;;;8.57;2.40;;;26.50;99.90;;;;;;5042500;28;20671;-86
2022/05/17 05:34:32;;;;;;;7.07;2.00;;;26.20;99.90;;;;;;5025219;28;20352;-89
2022/05/17 05:36:58;;;;;;;6.97;2.60;;;25.90;99.90;;;;;;5044173;28;20242;-89
2022/05/17 05:39:24;;;;;;;3.97;2.67;;;25.90;99.90;;;;;;5013223;28;20221;-86
2022/05/17 05:41:50;;;;;;;5.40;2.27;;;26.00;99.90;;;;;;5045865;28;20635;-87
2022/05/17 05:44:15;;;;;;;8.00;3.07;;;24.60;99.90;;;;;;5004135;28;20247;-86
2022/05/17 05:46:41;;;;;;;7.07;3.10;;;24.00;99.90;;;;;;5045199;28;20237;-87
2022/05/17 05:49:07;;;;;;;6.20;2.40;;;23.00;99.90;;;;;;5045942;28;20222;-87
2022/05/17 05:51:33;;;;;;;7.70;2.37;;;22.30;99.90;;;;;;5046007;28;20229;-88
2022/05/17 05:53:59;;;;;;;3.73;2.33;;;21.60;99.90;;;;;;5045834;28;20659;-88
2022/05/17 05:56:24;;;;;;;4.47;1.97;;;21.80;99.90;;;;;;5004683;28;20213;-89
2022/05/17 05:58:50;;;;;;;7.83;2.10;;;21.80;99.90;;;;;;5046177;28;20734;-86
2022/05/17 06:01:16;;;;;;;4.17;2.20;;;23.10;99.90;;;;;;5044834;28;20210;-87
2022/05/17 06:03:41;;;;;;;7.60;2.53;;;24.00;99.90;;;;;;5045553;28;20321;-87
2022/05/17 06:06:08;;;;;;;6.93;1.77;;;22.90;99.90;;;;;;5044937;28;20234;-88
2022/05/17 06:08:34;;;;;;;8.37;2.30;;;23.10;99.90;;;;;;5044704;28;20597;-86
2022/05/17 06:11:01;;;;;;;7.77;2.10;;;22.70;99.90;;;;;;5046585;28;20203;-87
2022/05/17 06:13:28;;;;;;;8.43;2.77;;;23.80;99.90;;;;;;5012332;28;20675;-85
2022/05/17 06:15:54;;;;;;;8.70;2.17;;;23.00;99.90;;;;;;5061918;28;20245;-88
2022/05/17 06:18:20;;;;;;;6.80;2.13;;;22.50;99.90;;;;;;5045743;28;20230;-86
2022/05/17 06:20:50;;;;;;;9.37;2.07;;;24.30;99.90;;;;;;5044795;28;20190;-90
2022/05/17 06:23:17;;;;;;;3.90;1.88;;;25.40;99.90;;;;;;5046281;28;20205;-86
2022/05/17 06:25:43;;;;;;;3.55;2.08;;;26.00;99.90;;;;;;5061511;28;20228;-88
2022/05/17 06:28:10;;;;;;;5.30;2.50;;;24.90;99.90;;;;;;5027625;28;20269;-86
2022/05/17 06:30:36;;;;;;;8.32;2.80;;;25.00;99.90;;;;;;5044248;28;20249;-86
2022/05/17 06:33:02;;;;;;;6.80;2.40;;;25.90;99.90;;;;;;5011866;28;21474;-87
2022/05/17 06:35:28;;;;;;;9.63;2.10;;;27.10;99.90;;;;;;5012767;28;20217;-86
2022/05/17 06:37:54;;;;;;;7.00;2.25;;;26.60;99.90;;;;;;5045366;28;20295;-85
2022/05/17 06:40:20;;;;;;;4.75;1.75;;;27.00;99.90;;;;;;5045396;28;20218;-88
2022/05/17 06:42:46;;;;;;;7.68;1.95;;;26.10;99.90;;;;;;5012622;28;20224;-88
2022/05/17 06:45:13;;;;;;;5.78;2.33;;;25.30;99.90;;;;;;5013225;28;20260;-87
2022/05/17 06:47:40;;;;;;;6.45;1.83;;;25.30;99.90;;;;;;5045498;28;20309;-86
2022/05/17 06:50:07;;;;;;;5.78;2.17;;;25.50;99.90;;;;;;5045822;28;20191;-89
2022/05/17 06:52:32;;;;;;;6.35;2.65;;;25.20;99.90;;;;;;5045875;28;20228;-90
2022/05/17 06:54:58;;;;;;;9.45;2.58;;;25.90;99.90;;;;;;5029617;28;20217;-85
2022/05/17 06:57:24;;;;;;;6.60;2.20;;;27.00;99.90;;;;;;5045627;28;21054;-87
2022/05/17 06:59:50;;;;;;;5.80;2.03;;;26.20;99.90;;;;;;5012843;28;20190;-87
2022/05/17 07:02:16;;;;;;;5.75;1.83;;;27.20;99.90;;;;;;5028743;28;20209;-88
2022/05/17 07:04:42;;;;;;;10.43;2.72;;;27.10;99.90;;;;;;5028689;28;20376;-88
2022/05/17 07:07:08;;;;;;;10.40;2.22;;;27.90;99.90;;;;;;5045135;28;20230;-84
2022/05/17 07:09:35;;;;;;;8.68;2.38;;;26.40;99.90;;;;;;5028519;28;20329;-87
2022/05/17 07:14:45;;;;;;;6.18;1.90;;;25.50;99.90;;;;;;5045648;28;20193;-86
2022/05/17 07:17:16;;;;;;;6.35;1.85;;;26.80;99.90;;;;;;5045805;28;20252;-88
2022/05/17 07:19:43;;;;;;;4.10;2.28;;;28.20;99.90;;;;;;5045587;28;21028;-89
2022/05/17 07:22:09;;;;;;;10.38;2.35;;;27.80;99.90;;;;;;5045164;28;20210;-88
2022/05/17 07:24:36;;;;;;;8.88;2.50;;;27.50;99.90;;;;;;5044900;28;20252;-87
2022/05/17 07:27:04;;;;;;;10.48;2.05;;;26.40;99.90;;;;;;5044975;28;20253;-88
2022/05/17 07:29:30;;;;;;;5.35;1.63;;;26.20;99.90;;;;;;5044744;28;20206;-90
2022/05/17 07:31:56;;;;;;;3.72;1.65;;;26.80;99.90;;;;;;5045170;28;20221;-86
2022/05/17 07:34:22;;;;;;;6.10;1.98;;;26.80;99.90;;;;;;5045066;28;20332;-90
2022/05/17 07:36:49;;;;;;;6.18;1.90;;;25.40;99.90;;;;;;5029175;28;20308;-89
2022/05/17 07:39:15;;;;;;;8.98;1.60;;;26.60;99.90;;;;;;5037078;28;20221;-90
2022/05/17 07:41:41;;;;;;;5.95;2.08;;;26.90;99.90;;;;;;5046301;28;20189;-90
2022/05/17 07:44:08;;;;;;;4.00;2.03;;;28.00;99.90;;;;;;5043246;28;20186;-87
2022/05/17 07:46:33;;;;;;;9.45;2.47;;;28.00;99.90;;;;;;5027342;28;20218;-88
2022/05/17 07:48:59;;;;;;;6.43;1.90;;;28.60;99.90;;;;;;5028154;28;20214;-86
2022/05/17 07:51:25;;;;;;;6.30;2.00;;;28.30;99.90;;;;;;5044524;28;20300;-86
2022/05/17 07:53:51;;;;;;;5.55;1.98;;;28.80;99.90;;;;;;5027147;28;21075;-90
2022/05/17 07:56:17;;;;;;;6.28;2.63;;;30.00;99.90;;;;;;5044432;28;20205;-87
2022/05/17 07:58:42;;;;;;;6.68;2.33;;;30.80;99.90;;;;;;5042836;28;21080;-86
2022/05/17 08:01:09;;;;;;;4.60;1.70;;;30.80;99.90;;;;;;5026506;28;20994;-85
2022/05/17 08:03:35;;;;;;;8.48;1.83;;;29.20;99.90;;;;;;5042457;28;20270;-87
2022/05/17 08:06:01;;;;;;;5.35;1.50;;;27.80;99.90;;;;;;5042732;28;20221;-86
2022/05/17 08:08:27;;;;;;;9.20;2.22;;;27.60;99.90;;;;;;5044190;28;20680;-86
2022/05/17 08:10:53;;;;;;;3.60;1.40;;;28.40;99.90;;;;;;5026545;28;20327;-87
2022/05/17 08:13:21;;;;;;;2.90;2.00;;;28.60;99.90;;;;;;5035794;28;20226;-88
2022/05/17 08:15:48;;;;;;;8.32;2.40;;;29.80;99.90;;;;;;5027031;28;20222;-87
2022/05/17 08:18:15;;;;;;;4.75;1.65;;;28.30;99.90;;;;;;5045042;28;20244;-89
2022/05/17 08:20:41;;;;;;;4.45;1.80;;;27.80;99.90;;;;;;5043495;28;20302;-91
2022/05/17 08:23:06;;;;;;;3.60;1.92;;;29.10;99.90;;;;;;5043230;28;20607;-86
2022/05/17 08:28:17;;;;;;;3.85;1.80;;;29.10;99.90;;;;;;5044330;28;20217;-88
2022/05/17 08:30:45;;;;;;;3.83;1.65;;;28.80;99.90;;;;;;5026024;28;20225;-85
2022/05/17 08:33:16;;;;;;;4.82;1.92;;;29.90;99.90;;;;;;5045060;28;20209;-87
2022/05/17 08:35:52;;;;;;;4.72;1.42;;;30.20;99.90;;;;;;5044195;28;20202;-90
2022/05/17 08:38:25;;;;;;;7.30;1.70;;;30.50;99.90;;;;;;5045014;28;20197;-89
2022/05/17 08:41:00;;;;;;;5.20;1.60;;;30.60;99.90;;;;;;5043393;28;20221;-86
2022/05/17 08:43:38;;;;;;;4.18;1.65;;;28.80;99.90;;;;;;5043353;28;20209;-88
2022/05/17 08:46:19;;;;;;;6.03;1.95;;;28.80;99.90;;;;;;5044046;28;20240;-86
2022/05/17 08:48:52;;;;;;;7.10;1.70;;;28.80;99.90;;;;;;5042492;28;20225;-87
2022/05/17 08:51:40;;;;;;;5.93;1.48;;;30.40;99.90;;;;;;5043983;28;20218;-89
2022/05/17 08:54:09;;;;;;;8.13;2.17;;;30.30;99.90;;;;;;5042551;28;20209;-87
2022/05/17 08:56:38;;;;;;;6.25;1.85;;;31.90;99.90;;;;;;5042770;28;20848;-86
2022/05/17 08:59:05;;;;;;;6.70;2.13;;;32.30;99.90;;;;;;5044676;28;20192;-87
2022/05/17 09:01:45;;;;;;;8.75;1.95;;;32.80;99.90;;;;;;5044774;28;20256;-88
2022/05/17 09:04:22;;;;;;;10.95;2.35;;;31.40;99.90;;;;;;5042474;28;20273;-87
2022/05/17 09:07:12;;;;;;;6.03;2.10;;;31.10;99.90;;;;;;5059673;28;20219;-88
2022/05/17 09:09:59;;;;;;;2.88;1.60;;;32.40;99.90;;;;;;5044108;28;20536;-86
2022/05/17 09:12:31;;;;;;;5.68;1.88;;;32.40;99.90;;;;;;5047890;28;20213;-86
2022/05/17 09:15:00;;;;;;;5.40;1.73;;;31.80;99.90;;;;;;5049047;28;20230;-89
2022/05/17 09:17:28;;;;;;;5.32;1.88;;;32.80;99.90;;;;;;5064575;28;20268;-86
2022/05/17 09:19:54;;;;;;;4.32;1.85;;;32.90;99.90;;;;;;5030681;28;20237;-85
2022/05/17 09:22:21;;;;;;;5.72;1.60;;;31.80;99.90;;;;;;5046401;28;20239;-86
2022/05/17 09:24:58;;;;;;;7.65;1.65;;;32.30;99.90;;;;;;5028615;28;20213;-85
2022/05/17 09:27:32;;;;;;;3.67;1.55;;;31.10;99.90;;;;;;5045186;28;20312;-86
2022/05/17 09:30:18;;;;;;;7.45;1.80;;;31.30;99.90;;;;;;5047068;28;20297;-85
2022/05/17 09:32:46;;;;;;;2.78;1.10;;;30.70;99.90;;;;;;5047483;28;20312;-91
2022/05/17 09:35:21;;;;;;;6.13;2.17;;;31.20;99.90;;;;;;5047932;28;20604;-86
2022/05/17 09:37:56;;;;;;;4.25;1.88;;;32.00;99.90;;;;;;5047105;28;20275;-87
2022/05/17 09:40:28;;;;;;;6.43;1.90;;;31.70;99.90;;;;;;5063662;28;20692;-89
2022/05/17 09:42:57;;;;;;;8.52;1.52;;;31.00;99.90;;;;;;5047113;28;20333;-90
2022/05/17 09:46:00;;;;;;;3.55;1.75;;;30.00;99.90;;;;;;5047560;28;20234;-89
2022/05/17 09:54:39;;;;;;;6.78;2.35;;;29.40;99.90;;;;;;5048416;28;20214;-91
2022/05/17 09:57:13;;;;;;;3.28;2.05;;;29.80;99.90;;;;;;5049465;28;21103;-91
2022/05/17 09:59:40;;;;;;;3.47;1.67;;;31.60;99.90;;;;;;5047234;28;20221;-87
2022/05/17 10:02:32;;;;;;;8.32;2.08;;;30.80;99.90;;;;;;5063589;28;20183;-90
2022/05/17 10:05:20;;;;;;;5.93;1.98;;;28.40;99.90;;;;;;5046264;28;20234;-87
2022/05/17 10:07:59;;;;;;;5.75;2.15;;;27.90;99.90;;;;;;5047597;28;20201;-90
2022/05/17 10:10:39;;;;;;;4.13;1.63;;;28.00;99.90;;;;;;5046970;28;20275;-88
2022/05/17 10:13:11;;;;;;;8.18;2.13;;;27.90;99.90;;;;;;5048528;28;20214;-90
2022/05/17 10:15:41;;;;;;;7.57;2.58;;;28.10;99.90;;;;;;5048095;28;20236;-90
2022/05/17 10:18:42;;;;;;;4.75;2.03;;;29.20;99.90;;;;;;5046320;28;20230;-89
2022/05/17 10:21:25;;;;;;;7.30;1.80;;;28.50;99.90;;;;;;5034355;28;20209;-88
2022/05/17 10:23:51;;;;;;;5.72;2.45;;;26.80;99.90;;;;;;5045424;28;20177;-90
2022/05/17 10:26:28;;;;;;;9.07;2.08;;;25.90;99.90;;;;;;5047821;28;20190;-89
2022/05/17 10:29:04;;;;;;;7.10;2.00;;;26.60;99.90;;;;;;5045549;28;20278;-90
2022/05/17 10:31:43;;;;;;;4.78;1.63;;;26.30;99.90;;;;;;5044306;28;20194;-87
2022/05/17 10:34:09;;;;;;;9.50;2.45;;;26.20;99.90;;;;;;5045320;28;20241;-89
2022/05/17 10:36:39;;;;;;;4.03;1.95;;;26.20;99.90;;;;;;5045203;28;20245;-87
2022/05/17 10:39:25;;;;;;;6.85;1.95;;;27.10;99.90;;;;;;5045571;28;20214;-88
2022/05/17 10:41:51;;;;;;;3.30;1.88;;;26.70;99.90;;;;;;5044794;28;20192;-89
2022/05/17 10:44:19;;;;;;;6.35;2.03;;;26.60;99.90;;;;;;5029638;28;20186;-86
2022/05/17 10:47:03;;;;;;;6.93;2.38;;;25.70;99.90;;;;;;5045731;28;20221;-87
2022/05/17 10:50:00;;;;;;;7.22;2.78;;;26.10;99.90;;;;;;5045213;28;20214;-88
2022/05/17 10:52:57;;;;;;;7.82;2.00;;;25.70;99.90;;;;;;5043951;28;20226;-90
2022/05/17 10:55:32;;;;;;;4.32;1.83;;;24.80;99.90;;;;;;5045416;28;20692;-88
2022/05/17 10:58:10;;;;;;;7.35;1.70;;;25.20;99.90;;;;;;5056794;28;20240;-89
2022/05/17 11:00:47;;;;;;;2.92;1.88;;;24.60;99.90;;;;;;5046321;28;20240;-87
2022/05/17 11:03:37;;;;;;;4.65;1.90;;;24.20;99.90;;;;;;5045748;28;21201;-87
2022/05/17 11:06:18;;;;;;;2.47;1.63;;;24.60;99.90;;;;;;5044994;28;20304;-88
2022/05/17 11:09:13;;;;;;;6.63;1.63;;;24.40;99.90;;;;;;5045304;28;20181;-89
2022/05/17 11:12:14;;;;;;;4.65;2.00;;;24.50;99.90;;;;;;5045480;28;20182;-87
2022/05/17 11:14:48;;;;;;;11.13;1.60;;;24.00;99.90;;;;;;5043594;28;20207;-87
2022/05/17 11:17:39;;;;;;;4.68;2.03;;;24.90;99.90;;;;;;5045251;28;20206;-89
2022/05/17 11:20:24;;;;;;;7.10;1.55;;;24.80;99.90;;;;;;5045488;28;20218;-87
2022/05/17 11:22:53;;;;;;;3.42;1.27;;;24.60;99.90;;;;;;5044750;28;20223;-89
2022/05/17 11:25:49;;;;;;;6.43;1.98;;;24.00;99.90;;;;;;5045564;28;20209;-88
2022/05/17 11:28:38;;;;;;;4.78;1.73;;;23.40;99.90;;;;;;5044946;28;20225;-87
2022/05/17 11:31:28;;;;;;;4.47;1.83;;;23.60;99.90;;;;;;5044709;28;20222;-87
2022/05/17 11:34:26;;;;;;;5.40;1.63;;;24.40;99.90;;;;;;5044498;28;20213;-90
2022/05/17 11:36:57;;;;;;;5.85;1.48;;;23.70;99.90;;;;;;5043174;28;20683;-92
2022/05/17 11:39:32;;;;;;;3.13;1.70;;;23.40;99.90;;;;;;5060911;28;20218;-89
2022/05/17 11:42:32;;;;;;;8.60;2.28;;;23.50;99.90;;;;;;5046117;28;20272;-88
2022/05/17 11:45:19;;;;;;;3.28;1.25;;;23.40;99.90;;;;;;5045774;28;20724;-89
2022/05/17 11:47:57;;;;;;;4.55;1.67;;;23.10;99.90;;;;;;5044932;28;20193;-88
2022/05/17 11:50:29;;;;;;;2.85;1.40;;;23.40;99.90;;;;;;5046886;28;20234;-90
2022/05/17 11:53:15;;;;;;;2.17;1.15;;;23.90;99.90;;;;;;5046092;28;20229;-90
2022/05/17 11:55:41;;;;;;;2.58;0.98;;;24.20;99.90;;;;;;5044581;28;20257;-89
2022/05/17 11:58:09;;;;;;;4.13;1.08;;;24.10;99.90;;;;;;5027902;28;20321;-89
2022/05/17 12:00:42;;;;;;;5.15;1.20;;;24.00;99.90;;;;;;5028947;28;20221;-91
2022/05/17 12:03:39;;;;;;;3.25;1.05;;;23.50;99.90;;;;;;5043850;28;20453;-88
2022/05/17 12:06:09;;;;;;;6.38;1.50;;;23.70;99.90;;;;;;5043786;28;20229;-92
2022/05/17 12:08:40;;;;;;;8.02;2.00;;;23.30;99.90;;;;;;5044827;28;20213;-90
2022/05/17 12:11:11;;;;;;;7.35;1.58;;;23.50;99.90;;;;;;5044499;28;20189;-89
2022/05/17 12:13:58;;;;;;;9.80;1.70;;;23.00;99.90;;;;;;5043250;28;20209;-89
2022/05/17 12:16:29;;;;;;;4.18;1.55;;;22.90;99.90;;;;;;5043646;28;20229;-87
2022/05/17 12:19:10;;;;;;;2.30;1.38;;;22.70;99.90;;;;;;5058751;28;20224;-87
2022/05/17 12:22:00;;;;;;;4.45;1.95;;;22.70;99.90;;;;;;5043372;28;20297;-86
2022/05/17 12:25:02;;;;;;;4.03;1.35;;;22.50;99.90;;;;;;5043963;28;20229;-89
2022/05/17 12:27:34;;;;;;;2.85;1.20;;;22.90;99.90;;;;;;5044473;28;20229;-89
2022/05/17 12:33:14;;;;;;;7.18;1.52;;;22.90;99.90;;;;;;5045097;28;20304;-88
2022/05/17 12:35:41;;;;;;;4.75;1.42;;;22.80;99.90;;;;;;5044662;28;20177;-91
2022/05/17 12:43:02;;;;;;;7.88;1.63;;;22.60;99.90;;;;;;5027924;28;20293;-87
2022/05/17 12:43:44;;;;;;;4.60;1.77;;;22.60;99.90;;;;;;5043899;28;20683;-87
2022/05/17 12:46:31;;;;;;;5.75;2.17;;;22.40;99.90;;;;;;5043133;28;20253;-89
2022/05/17 12:49:00;;;;;;;3.17;1.13;;;22.60;99.90;;;;;;5044468;28;20228;-90
2022/05/17 12:51:27;;;;;;;6.55;1.50;;;22.60;99.90;;;;;;5044359;28;20218;-91
2022/05/17 12:53:54;;;;;;;5.15;1.48;;;22.60;99.90;;;;;;5002528;28;20185;-89
2022/05/17 12:56:20;;;;;;;2.28;1.50;;;22.50;99.90;;;;;;5027501;28;20216;-88
2022/05/17 12:58:56;;;;;;;4.10;1.53;;;22.50;99.90;;;;;;5042752;28;20233;-88
2022/05/17 13:01:29;;;;;;;2.45;1.00;;;22.60;99.90;;;;;;5043651;28;20278;-89
2022/05/17 13:04:08;;;;;;;4.40;1.57;;;22.90;99.90;;;;;;5044924;28;20245;-93
2022/05/17 13:06:49;;;;;;;2.30;1.52;;;22.80;99.90;;;;;;5029146;28;20267;-90
2022/05/17 13:09:18;;;;;;;3.20;1.48;;;23.30;99.90;;;;;;5044372;28;20379;-91
2022/05/17 13:11:44;;;;;;;5.18;1.40;;;23.30;99.90;;;;;;5042744;28;20186;-90
2022/05/17 13:14:22;;;;;;;4.72;1.17;;;22.80;99.90;;;;;;5045580;28;20182;-89
2022/05/17 13:16:50;;;;;;;22.77;2.00;;;22.90;99.90;;;;;;5043928;28;20230;-91
2022/05/17 13:19:25;;;;;;;2.38;1.45;;;23.10;99.90;;;;;;5043156;28;20229;-90
2022/05/17 13:21:54;;;;;;;1.00;0.80;;;23.20;99.90;;;;;;5042956;28;20221;-87